Impacts METAR Board
IDs:

KSEA - Seattle-Tacoma Intl, WA, US

Updated at: 0900 UTC 18 Jan 2019
Potential Impact None Slight Moderate High
Time 17/21Z 17/22Z 17/23Z 18/00Z 18/01Z 18/02Z 18/03Z 18/04Z 18/05Z 18/06Z 18/07Z 18/08Z 18/09Z
Temp56 55 55 55 53 52 52 52 50 50 49 49 48
Dewpt38 39 39 38 39 39 39 40 40 40 41 41 42
Altim29.50 29.51 29.54 29.57 29.60 29.64 29.67 29.72 29.75 29.79 29.84 29.90 29.94
VIS10 10 10 10 10 10 10 10 9 10 9 10 10
CIG60 50 55 80 44 39 40 39 32 37 23 29 32
CoverOVCOVCOVCOVCOVCOVCOVCOVCOVCOVCOVCOVCOVC
FltCatVFRVFRVFRVFRVFRVFRVFRVFRVFRVFRMVFRMVFRVFR
WX-----------------RA---RA----
WDir170200160170180170180190180190190190180
WSpd9 12 14 16 15 10 15 13 11 13 18 18 13
WGst-- -- -- 23 22 19 22 -- -- 19 22 22 --
Raw hourly METARs
KSEA 172053Z 17009KT 10SM FEW043 OVC060 13/03 A2950 RMK AO2 SLP995 T01330033 50005
KSEA 172153Z 20012KT 10SM OVC050 13/04 A2951 RMK AO2 RAB41E51 SLP999 P0000 T01280039
KSEA 172253Z 16014KT 10SM SCT047 BKN055 OVC120 13/04 A2954 RMK AO2 SLP008 T01280039
KSEA 172353Z 17016G23KT 10SM SCT050 BKN080 OVC100 13/03 A2957 RMK AO2 SLP019 60000 T01280033 10139 20106 53023
KSEA 180053Z 18015G22KT 10SM BKN044 OVC090 12/04 A2960 RMK AO2 SLP031 T01170039
KSEA 180153Z 17010G19KT 10SM BKN039 OVC080 11/04 A2964 RMK AO2 SLP044 T01110039
KSEA 180253Z 18015G22KT 10SM OVC040 11/04 A2967 RMK AO2 SLP055 T01110039 51034
KSEA 180353Z 19013KT 10SM OVC039 11/04 A2972 RMK AO2 SLP070 T01110044
KSEA 180453Z 18011KT 9SM -RA OVC032 10/04 A2975 RMK AO2 RAB04E31B50 SLP081 P0000 T01000044
KSEA 180553Z 19013G19KT 10SM FEW029 OVC037 10/04 A2979 RMK AO2 RAE34 SLP095 P0001 60001 T01000044 10128 20100 51040
KSEA 180653Z 19018G22KT 9SM -RA OVC023 09/05 A2984 RMK AO2 PK WND 20026/0639 RAB32 SLP113 P0000 T00940050
KSEA 180753Z 19018G22KT 10SM FEW020 BKN029 OVC034 09/05 A2990 RMK AO2 PK WND 20029/0727 RAE23 SLP130 P0000 T00940050 401390083
KSEA 180853Z 18013KT 10SM SCT022 BKN032 OVC041 09/06 A2994 RMK AO2 SLP143 60000 T00890056 51048



Page loaded:  09:30 UTC  |   01:30 AM Pacific  |   02:30 AM Mountain  |   03:30 AM Central  |   04:30 AM Eastern

 

ADVISORIES

FORECASTS

FORECASTS

OBSERVATIONS

USER TOOLS

ABOUT US